createdAt,value
2022-12-20T00:03:53.577Z,42.10
2022-12-20T00:08:59.439Z,42.10
2022-12-20T00:14:02.624Z,42.10
2022-12-20T00:19:08.018Z,42.20
2022-12-20T00:24:12.862Z,42.10
2022-12-20T00:29:15.943Z,42.10
2022-12-20T00:34:19.237Z,42.20
2022-12-20T00:39:23.691Z,42.00
2022-12-20T00:44:28.533Z,41.90
2022-12-20T00:49:31.594Z,41.80
2022-12-20T00:54:36.194Z,41.90
2022-12-20T00:59:39.290Z,41.90
2022-12-20T01:04:42.361Z,41.90
2022-12-20T01:09:46.800Z,41.90
2022-12-20T01:14:49.866Z,41.90
2022-12-20T01:19:52.921Z,41.90
2022-12-20T01:24:57.398Z,41.90
2022-12-20T01:30:00.474Z,41.90
2022-12-20T01:35:03.588Z,41.90
2022-12-20T01:40:10.546Z,41.80
2022-12-20T01:45:24.266Z,41.80
2022-12-20T01:50:29.351Z,42.10
2022-12-20T01:55:35.094Z,42.00
2022-12-20T02:00:38.394Z,42.20
2022-12-20T02:05:44.392Z,41.90
2022-12-20T02:11:09.615Z,42.00
2022-12-20T02:16:20.413Z,42.00
2022-12-20T02:21:32.599Z,41.90
2022-12-20T02:27:02.150Z,41.90
2022-12-20T02:32:14.040Z,42.10
2022-12-20T02:37:17.429Z,42.00
2022-12-20T02:42:25.135Z,42.00
2022-12-20T02:47:34.677Z,41.90
2022-12-20T02:52:39.157Z,41.90
2022-12-20T02:57:52.136Z,41.90
2022-12-20T03:03:17.741Z,42.10
2022-12-20T03:08:22.013Z,42.00
2022-12-20T03:13:26.549Z,42.00
2022-12-20T03:18:30.996Z,42.00
2022-12-20T03:23:34.168Z,41.90
2022-12-20T03:28:37.254Z,42.10
2022-12-20T03:33:41.869Z,42.30
2022-12-20T03:38:44.935Z,42.30
2022-12-20T03:43:48.021Z,42.30
2022-12-20T03:48:52.454Z,42.10
2022-12-20T03:53:55.754Z,42.10
2022-12-20T03:58:58.815Z,42.10
2022-12-20T04:04:03.836Z,42.00
2022-12-20T04:09:07.099Z,43.00
2022-12-20T04:14:10.274Z,42.30
2022-12-20T04:19:14.859Z,42.20
2022-12-20T04:24:18.301Z,42.50
2022-12-20T04:29:21.453Z,42.60
2022-12-20T04:34:26.077Z,42.40
2022-12-20T04:39:29.258Z,42.30
2022-12-20T04:44:32.456Z,42.30
2022-12-20T04:49:36.928Z,42.30
2022-12-20T04:54:39.985Z,42.30
2022-12-20T04:59:43.902Z,42.30
2022-12-20T05:04:48.349Z,42.40
2022-12-20T05:09:51.472Z,42.50
2022-12-20T05:14:54.550Z,42.30
2022-12-20T05:19:59.026Z,42.40
2022-12-20T05:25:19.380Z,42.40
2022-12-20T05:30:23.022Z,42.40
2022-12-20T05:35:27.477Z,42.30
2022-12-20T05:40:30.614Z,42.30
2022-12-20T05:45:33.845Z,42.30
2022-12-20T05:50:38.344Z,42.20
2022-12-20T05:55:45.775Z,42.20
2022-12-20T06:00:49.131Z,42.40
2022-12-20T06:05:53.639Z,42.40
2022-12-20T06:10:56.865Z,42.50
2022-12-20T06:16:00.525Z,42.60
2022-12-20T06:21:05.250Z,42.70
2022-12-20T06:26:09.405Z,43.00
2022-12-20T06:31:12.920Z,43.70
2022-12-20T06:36:17.473Z,43.90
2022-12-20T06:41:20.684Z,43.50
2022-12-20T06:46:23.909Z,43.10
2022-12-20T06:51:28.417Z,42.80
2022-12-20T06:56:36.066Z,42.70
2022-12-20T07:01:42.798Z,42.70
2022-12-20T07:06:47.547Z,42.70
2022-12-20T07:11:50.859Z,42.60
2022-12-20T07:16:54.050Z,42.70
2022-12-20T07:21:58.638Z,42.70
2022-12-20T07:27:02.289Z,42.70
2022-12-20T07:32:05.763Z,42.80
2022-12-20T07:37:10.644Z,42.60
2022-12-20T07:42:14.157Z,42.70
2022-12-20T07:47:17.593Z,42.70
2022-12-20T07:52:25.141Z,42.90
2022-12-20T07:57:33.176Z,43.00
2022-12-20T08:02:41.677Z,43.00
2022-12-20T08:07:51.099Z,43.00
2022-12-20T08:12:59.591Z,43.10
2022-12-20T08:18:02.725Z,43.00
2022-12-20T08:23:07.275Z,43.00
2022-12-20T08:28:10.920Z,43.10
2022-12-20T08:33:14.296Z,43.10
2022-12-20T08:38:18.742Z,43.20
2022-12-20T08:43:21.859Z,43.30
2022-12-20T08:48:25.102Z,43.20
2022-12-20T08:53:30.515Z,43.20
2022-12-20T08:58:33.882Z,43.30
2022-12-20T09:03:38.091Z,43.20
2022-12-20T09:08:43.379Z,43.30
2022-12-20T09:13:48.246Z,43.30
2022-12-20T09:18:52.124Z,43.30
2022-12-20T09:23:57.982Z,43.30
2022-12-20T09:29:02.134Z,43.50
2022-12-20T09:34:05.283Z,43.50
2022-12-20T09:39:11.935Z,43.40
2022-12-20T09:44:19.260Z,43.70
2022-12-20T09:49:29.914Z,43.70
2022-12-20T09:54:42.282Z,43.80
2022-12-20T09:59:49.461Z,44.20
2022-12-20T10:04:55.399Z,44.00
2022-12-20T10:10:26.093Z,44.00
2022-12-20T10:15:35.107Z,44.40
2022-12-20T10:20:47.967Z,44.20
2022-12-20T10:25:56.482Z,44.20
2022-12-20T10:31:04.266Z,44.10
2022-12-20T10:36:22.697Z,44.10
2022-12-20T10:41:28.889Z,44.20
2022-12-20T10:46:41.503Z,44.00
2022-12-20T10:51:53.377Z,44.10
2022-12-20T10:56:59.997Z,44.00
2022-12-20T11:02:04.740Z,43.70
2022-12-20T11:07:29.546Z,44.30
2022-12-20T11:12:33.990Z,44.30
2022-12-20T11:17:39.901Z,43.90
2022-12-20T11:22:52.806Z,43.70
2022-12-20T11:28:11.111Z,43.60
2022-12-20T11:33:47.565Z,43.50
2022-12-20T11:38:59.874Z,44.00
2022-12-20T11:44:25.462Z,43.50
2022-12-20T11:49:58.426Z,43.50
2022-12-20T11:55:15.964Z,43.50
2022-12-20T12:00:22.784Z,43.50
2022-12-20T12:05:30.724Z,43.60
2022-12-20T12:10:38.442Z,43.50
2022-12-20T12:15:52.303Z,43.50
2022-12-20T12:21:08.317Z,43.70
2022-12-20T12:26:16.702Z,43.60
2022-12-20T12:31:29.933Z,43.70
2022-12-20T12:36:47.357Z,43.70
2022-12-20T12:42:17.658Z,43.80
2022-12-20T12:47:26.100Z,46.00
2022-12-20T12:52:50.582Z,44.60
2022-12-20T12:57:57.977Z,43.90
2022-12-20T13:03:15.343Z,44.00
2022-12-20T13:08:19.091Z,43.70
2022-12-20T13:13:24.425Z,43.70
2022-12-20T13:18:29.784Z,43.70
2022-12-20T13:23:32.922Z,43.60
2022-12-20T13:28:46.711Z,43.50
2022-12-20T13:33:51.951Z,43.60
2022-12-20T13:39:01.127Z,43.70
2022-12-20T13:44:43.159Z,43.70
2022-12-20T13:49:47.667Z,47.80
2022-12-20T13:54:53.872Z,48.20
2022-12-20T14:00:06.552Z,45.90
2022-12-20T14:05:19.440Z,45.00
2022-12-20T14:10:25.972Z,44.00
2022-12-20T14:15:31.715Z,43.80
2022-12-20T14:20:37.618Z,43.60
2022-12-20T14:25:45.965Z,43.50
2022-12-20T14:30:49.103Z,43.40
2022-12-20T14:35:53.704Z,44.50
2022-12-20T14:40:56.829Z,44.10
2022-12-20T14:46:17.901Z,43.80
2022-12-20T14:51:22.862Z,43.30
2022-12-20T14:56:31.740Z,43.20
2022-12-20T15:01:40.130Z,43.30
2022-12-20T15:06:49.487Z,43.50
2022-12-20T15:11:53.125Z,43.80
2022-12-20T15:16:56.370Z,44.10
2022-12-20T15:22:01.760Z,44.00
2022-12-20T15:27:05.032Z,43.70
2022-12-20T15:32:15.605Z,43.50
2022-12-20T15:37:20.293Z,43.70
2022-12-20T15:42:24.893Z,43.60
2022-12-20T15:47:28.115Z,43.60
2022-12-20T15:52:33.391Z,43.30
2022-12-20T15:57:36.640Z,43.30
2022-12-20T16:02:40.153Z,43.30
2022-12-20T16:07:44.759Z,43.40
2022-12-20T16:12:48.443Z,43.40
2022-12-20T16:17:51.605Z,43.40
2022-12-20T16:22:56.467Z,43.40
2022-12-20T16:27:59.823Z,43.50
2022-12-20T16:33:04.895Z,43.50
2022-12-20T16:38:13.791Z,43.70
2022-12-20T16:43:18.332Z,43.70
2022-12-20T16:48:21.680Z,43.60
2022-12-20T16:53:26.120Z,43.70
2022-12-20T16:59:00.003Z,43.70
2022-12-20T17:03:53.389Z,43.70
2022-12-20T17:14:19.991Z,44.10
2022-12-20T17:19:23.223Z,44.10
2022-12-20T17:24:27.694Z,44.10
2022-12-20T17:29:30.926Z,44.10
2022-12-20T17:34:34.718Z,44.10
2022-12-20T17:39:39.282Z,44.10
2022-12-20T17:44:42.505Z,44.10
2022-12-20T17:49:45.661Z,44.10
2022-12-20T17:54:50.371Z,44.20
2022-12-20T17:59:53.508Z,45.70
2022-12-20T18:04:56.623Z,45.40
2022-12-20T18:10:01.175Z,45.60
2022-12-20T18:15:06.973Z,44.40
2022-12-20T18:20:11.711Z,44.40
2022-12-20T18:25:18.288Z,43.90
2022-12-20T18:30:21.691Z,43.60
2022-12-20T18:35:24.799Z,43.80
2022-12-20T18:40:29.284Z,44.00
2022-12-20T18:45:34.997Z,44.10
2022-12-20T18:50:38.174Z,44.10
2022-12-20T18:55:42.716Z,44.00
2022-12-20T19:00:45.984Z,44.00
2022-12-20T19:05:53.308Z,43.90
2022-12-20T19:11:01.829Z,44.00
2022-12-20T19:16:08.332Z,44.20
2022-12-20T19:21:13.256Z,44.20
2022-12-20T19:26:19.500Z,44.10
2022-12-20T19:31:24.726Z,44.20
2022-12-20T19:36:31.585Z,43.90
2022-12-20T19:41:36.809Z,43.80
2022-12-20T19:46:40.358Z,43.80
2022-12-20T19:51:43.658Z,43.90
2022-12-20T19:56:48.163Z,43.90
2022-12-20T20:01:51.483Z,44.00
2022-12-20T20:06:56.408Z,43.90
2022-12-20T20:12:01.181Z,43.90
2022-12-20T20:17:04.351Z,44.10
2022-12-20T20:22:07.586Z,44.80
2022-12-20T20:27:12.233Z,44.10
2022-12-20T20:32:15.391Z,44.20
2022-12-20T20:37:18.531Z,44.20
2022-12-20T20:42:23.691Z,44.00
2022-12-20T20:47:26.983Z,44.00
2022-12-20T20:52:30.094Z,44.10
2022-12-20T20:57:34.750Z,44.10
2022-12-20T21:02:39.291Z,44.10
2022-12-20T21:07:42.644Z,44.10
2022-12-20T21:12:47.155Z,44.10
2022-12-20T21:17:50.393Z,44.10
2022-12-20T21:22:53.661Z,44.10
2022-12-20T21:27:58.682Z,44.10
2022-12-20T21:33:02.007Z,44.10
2022-12-20T21:38:05.244Z,44.10
2022-12-20T21:43:09.786Z,44.10
2022-12-20T21:48:13.272Z,44.10
2022-12-20T21:53:19.614Z,44.10
2022-12-20T21:58:24.536Z,44.10
2022-12-20T22:03:28.037Z,44.10
2022-12-20T22:08:32.791Z,44.10
2022-12-20T22:13:41.539Z,44.10
2022-12-20T22:18:48.784Z,44.10
2022-12-20T22:23:51.969Z,44.10
2022-12-20T22:28:58.768Z,44.10
2022-12-20T22:34:02.386Z,44.10
2022-12-20T22:39:05.554Z,44.10
2022-12-20T22:44:10.072Z,44.00
2022-12-20T22:49:17.858Z,44.10
2022-12-20T22:54:21.033Z,44.30
2022-12-20T22:59:25.527Z,44.00
2022-12-20T23:04:28.637Z,44.10
2022-12-20T23:09:31.816Z,44.00
2022-12-20T23:15:03.792Z,44.00
2022-12-20T23:20:26.108Z,44.10
2022-12-20T23:25:29.345Z,44.00
2022-12-20T23:30:33.866Z,44.00
2022-12-20T23:35:37.015Z,44.00
2022-12-20T23:40:42.065Z,44.00
2022-12-20T23:45:46.857Z,44.00
2022-12-20T23:50:56.796Z,43.90
2022-12-20T23:56:03.357Z,43.90
